createdAt,value
2024-04-18T00:01:01.665Z,100146.72
2024-04-18T00:07:14.551Z,100146.13
2024-04-18T00:09:41.151Z,100144.63
2024-04-18T00:12:07.770Z,100149.94
2024-04-18T00:14:34.338Z,100155.22
2024-04-18T00:17:00.844Z,100159.06
2024-04-18T00:19:27.385Z,100151.91
2024-04-18T00:21:53.870Z,100154.81
2024-04-18T00:24:20.357Z,100160.75
2024-04-18T00:26:46.959Z,100160.03
2024-04-18T00:29:13.451Z,100155.09
2024-04-18T00:31:39.939Z,100156.25
2024-04-18T00:34:06.580Z,100163.59
2024-04-18T00:36:33.144Z,100168.81
2024-04-18T00:38:59.706Z,100166.88
2024-04-18T00:41:26.178Z,100163.50
2024-04-18T00:43:52.683Z,100168.44
2024-04-18T00:46:21.232Z,100154.94
2024-04-18T00:48:47.923Z,100170.78
2024-04-18T00:51:14.765Z,100169.69
2024-04-18T00:53:41.403Z,100172.22
2024-04-18T00:56:08.125Z,100170.41
2024-04-18T00:58:34.804Z,100171.75
2024-04-18T01:01:01.886Z,100178.38
2024-04-18T01:03:29.265Z,100174.75
2024-04-18T01:05:57.057Z,100178.50
2024-04-18T01:08:23.975Z,100177.66
2024-04-18T01:10:50.484Z,100176.44
2024-04-18T01:13:17.096Z,100180.56
2024-04-18T01:15:43.643Z,100176.69
2024-04-18T01:18:10.251Z,100176.22
2024-04-18T01:20:37.622Z,100175.56
2024-04-18T01:23:04.358Z,100181.75
2024-04-18T01:25:30.997Z,100178.75
2024-04-18T01:27:57.805Z,100183.72
2024-04-18T01:30:24.310Z,100179.94
2024-04-18T01:32:50.954Z,100182.16
2024-04-18T01:35:17.632Z,100180.28
2024-04-18T01:37:44.139Z,100185.09
2024-04-18T01:40:10.710Z,100187.38
2024-04-18T01:42:37.264Z,100187.75
2024-04-18T01:45:04.103Z,100183.72
2024-04-18T01:47:30.760Z,100188.00
2024-04-18T01:49:57.310Z,100196.31
2024-04-18T01:52:23.828Z,100194.50
2024-04-18T01:54:50.378Z,100191.50
2024-04-18T01:57:16.963Z,100196.69
2024-04-18T01:59:43.504Z,100196.31
2024-04-18T02:02:09.994Z,100190.50
2024-04-18T02:04:36.484Z,100198.94
2024-04-18T02:07:03.087Z,100194.44
2024-04-18T02:09:29.682Z,100198.09
2024-04-18T02:11:56.174Z,100200.22
2024-04-18T02:14:22.721Z,100200.63
2024-04-18T02:16:49.228Z,100201.22
2024-04-18T02:19:15.784Z,100201.22
2024-04-18T02:21:42.361Z,100198.69
2024-04-18T02:24:08.918Z,100209.81
2024-04-18T02:26:36.766Z,100197.69
2024-04-18T02:29:03.291Z,100203.84
2024-04-18T02:31:29.818Z,100210.75
2024-04-18T02:33:56.356Z,100202.75
2024-04-18T02:36:22.926Z,100188.84
2024-04-18T02:38:49.662Z,100206.19
2024-04-18T02:41:16.118Z,100206.53
2024-04-18T02:43:42.625Z,100215.19
2024-04-18T02:46:09.174Z,100211.19
2024-04-18T02:48:38.124Z,100206.97
2024-04-18T02:51:09.598Z,100214.34
2024-04-18T02:53:36.442Z,100226.31
2024-04-18T02:56:03.076Z,100222.81
2024-04-18T02:58:29.567Z,100220.63
2024-04-18T03:00:56.253Z,100225.31
2024-04-18T03:03:22.881Z,100226.69
2024-04-18T03:05:49.378Z,100225.28
2024-04-18T03:08:15.823Z,100224.19
2024-04-18T03:10:50.120Z,100224.41
2024-04-18T03:13:16.640Z,100230.59
2024-04-18T03:15:46.878Z,100237.25
2024-04-18T03:18:14.485Z,100235.91
2024-04-18T03:20:41.824Z,100231.88
2024-04-18T03:23:09.954Z,100241.13
2024-04-18T03:25:36.468Z,100245.31
2024-04-18T03:28:03.089Z,100243.63
2024-04-18T03:30:29.616Z,100246.16
2024-04-18T03:32:56.633Z,100246.72
2024-04-18T03:35:23.226Z,100252.78
2024-04-18T03:37:49.765Z,100254.16
2024-04-18T03:40:16.382Z,100253.41
2024-04-18T03:42:43.028Z,100254.16
2024-04-18T03:45:09.595Z,100260.84
2024-04-18T03:47:36.146Z,100262.75
2024-04-18T03:50:02.684Z,100265.31
2024-04-18T03:52:29.205Z,100263.50
2024-04-18T03:55:01.741Z,100269.88
2024-04-18T03:57:29.461Z,100269.69
2024-04-18T03:59:55.971Z,100274.28
2024-04-18T04:02:22.472Z,100277.69
2024-04-18T04:04:51.320Z,100278.53
2024-04-18T04:07:18.216Z,100278.13
2024-04-18T04:09:44.925Z,100288.75
2024-04-18T04:12:11.584Z,100284.22
2024-04-18T04:14:38.089Z,100289.84
2024-04-18T04:17:04.644Z,100291.13
2024-04-18T04:19:31.243Z,100290.38
2024-04-18T04:21:58.287Z,100297.06
2024-04-18T04:24:24.879Z,100290.69
2024-04-18T04:26:52.167Z,100291.53
2024-04-18T04:29:19.319Z,100300.53
2024-04-18T04:31:46.180Z,100313.84
2024-04-18T04:34:13.549Z,100301.31
2024-04-18T04:36:40.293Z,100315.78
2024-04-18T04:39:07.040Z,100316.44
2024-04-18T04:41:33.545Z,100321.78
2024-04-18T04:44:00.047Z,100322.44
2024-04-18T04:46:26.513Z,100326.25
2024-04-18T04:48:54.745Z,100331.78
2024-04-18T04:51:21.298Z,100336.47
2024-04-18T04:53:49.868Z,100333.94
2024-04-18T04:56:17.834Z,100347.53
2024-04-18T04:58:44.429Z,100340.09
2024-04-18T05:01:10.909Z,100343.06
2024-04-18T05:03:38.099Z,100346.56
2024-04-18T05:06:04.810Z,100352.44
2024-04-18T05:08:31.306Z,100354.13
2024-04-18T05:10:57.993Z,100349.44
2024-04-18T05:13:24.468Z,100351.16
2024-04-18T05:15:51.008Z,100362.44
2024-04-18T05:18:17.825Z,100366.47
2024-04-18T05:20:44.427Z,100372.53
2024-04-18T05:23:10.960Z,100371.38
2024-04-18T05:25:37.549Z,100379.56
2024-04-18T05:28:11.033Z,100381.25
2024-04-18T05:30:57.489Z,100391.28
2024-04-18T05:33:24.910Z,100381.78
2024-04-18T05:35:52.034Z,100402.53
2024-04-18T05:38:18.538Z,100404.44
2024-04-18T05:40:46.668Z,100399.13
2024-04-18T05:43:13.217Z,100406.13
2024-04-18T05:45:39.834Z,100413.47
2024-04-18T05:48:06.456Z,100422.22
2024-04-18T05:50:32.991Z,100417.56
2024-04-18T05:52:59.512Z,100424.88
2024-04-18T05:55:26.149Z,100427.44
2024-04-18T05:57:52.655Z,100432.53
2024-04-18T06:00:19.793Z,100431.91
2024-04-18T06:02:46.322Z,100440.53
2024-04-18T06:05:12.805Z,100445.66
2024-04-18T06:07:41.232Z,100443.59
2024-04-18T06:10:08.947Z,100456.53
2024-04-18T06:12:35.557Z,100449.03
2024-04-18T06:15:02.145Z,100455.84
2024-04-18T06:17:29.285Z,100466.34
2024-04-18T06:19:55.945Z,100458.16
2024-04-18T06:22:22.464Z,100462.81
2024-04-18T06:24:49.229Z,100468.13
2024-04-18T06:27:15.809Z,100467.28
2024-04-18T06:29:42.376Z,100475.56
2024-04-18T06:32:08.886Z,100483.22
2024-04-18T06:34:35.439Z,100482.53
2024-04-18T06:37:04.952Z,100490.31
2024-04-18T06:39:33.675Z,100488.50
2024-04-18T06:42:00.502Z,100507.06
2024-04-18T06:44:26.991Z,100497.00
2024-04-18T06:47:00.419Z,100507.63
2024-04-18T06:49:28.892Z,100492.91
2024-04-18T06:51:55.407Z,100500.34
2024-04-18T06:54:22.038Z,100505.56
2024-04-18T06:56:48.668Z,100507.22
2024-04-18T06:59:15.171Z,100504.78
2024-04-18T07:01:41.702Z,100510.66
2024-04-18T07:04:08.466Z,100517.44
2024-04-18T07:06:38.719Z,100520.31
2024-04-18T07:09:05.429Z,100526.91
2024-04-18T07:11:31.997Z,100528.28
2024-04-18T07:13:58.544Z,100529.16
2024-04-18T07:16:25.134Z,100530.81
2024-04-18T07:18:52.111Z,100534.16
2024-04-18T07:21:18.739Z,100532.94
2024-04-18T07:23:45.406Z,100530.78
2024-04-18T07:26:12.401Z,100540.25
2024-04-18T07:28:38.899Z,100546.09
2024-04-18T07:31:05.428Z,100540.03
2024-04-18T07:33:34.394Z,100542.47
2024-04-18T07:36:01.223Z,100543.44
2024-04-18T07:38:28.667Z,100538.50
2024-04-18T07:40:55.516Z,100541.53
2024-04-18T07:43:22.107Z,100555.75
2024-04-18T07:45:48.763Z,100552.50
2024-04-18T07:48:15.514Z,100562.59
2024-04-18T07:50:42.192Z,100565.25
2024-04-18T07:53:10.430Z,100567.69
2024-04-18T07:55:37.323Z,100571.69
2024-04-18T07:58:04.967Z,100566.34
2024-04-18T08:00:33.830Z,100574.03
2024-04-18T08:03:04.007Z,100579.03
2024-04-18T08:05:34.914Z,100574.38
2024-04-18T08:08:06.549Z,100577.53
2024-04-18T08:10:45.858Z,100578.38
2024-04-18T08:13:25.167Z,100582.03
2024-04-18T08:18:26.855Z,100600.41
2024-04-18T08:20:53.449Z,100596.84
2024-04-18T08:23:21.819Z,100609.75
2024-04-18T08:25:48.631Z,100609.50
2024-04-18T08:28:16.256Z,100614.72
2024-04-18T08:30:42.851Z,100616.03
2024-04-18T08:33:09.486Z,100618.13
2024-04-18T08:35:36.094Z,100625.78
2024-04-18T08:38:02.784Z,100623.00
2024-04-18T08:40:29.669Z,100624.09
2024-04-18T08:42:56.296Z,100633.69
2024-04-18T08:45:26.364Z,100629.91
2024-04-18T08:47:58.296Z,100633.91
2024-04-18T08:50:25.798Z,100631.41
2024-04-18T08:52:53.280Z,100629.06
2024-04-18T08:55:19.815Z,100634.66
2024-04-18T08:57:51.208Z,100639.88
2024-04-18T09:00:17.719Z,100636.00
2024-04-18T09:02:46.067Z,100640.13
2024-04-18T09:05:12.694Z,100646.25
2024-04-18T09:07:39.227Z,100648.69
2024-04-18T09:10:09.616Z,100652.56
2024-04-18T09:12:36.573Z,100660.59
2024-04-18T09:15:05.041Z,100660.31
2024-04-18T09:17:31.894Z,100649.16
2024-04-18T09:19:58.442Z,100668.09
2024-04-18T09:22:24.950Z,100660.56
2024-04-18T09:24:51.418Z,100673.59
2024-04-18T09:27:17.970Z,100675.09
2024-04-18T09:29:47.812Z,100676.53
2024-04-18T09:32:16.355Z,100674.22
2024-04-18T09:34:49.078Z,100680.78
2024-04-18T09:37:16.855Z,100682.38
2024-04-18T09:39:45.449Z,100680.06
2024-04-18T09:42:20.644Z,100674.41
2024-04-18T09:44:54.383Z,100681.84
2024-04-18T09:47:24.738Z,100682.22
2024-04-18T09:49:54.509Z,100685.41
2024-04-18T09:52:22.770Z,100687.56
2024-04-18T09:54:50.984Z,100697.81
2024-04-18T09:57:19.418Z,100686.28
2024-04-18T09:59:47.602Z,100691.69
2024-04-18T10:02:16.788Z,100688.69
2024-04-18T10:04:44.078Z,100680.63
2024-04-18T10:07:13.108Z,100694.59
2024-04-18T10:09:41.609Z,100691.31
2024-04-18T10:12:10.692Z,100684.63
2024-04-18T10:14:38.076Z,100689.66
2024-04-18T10:17:05.560Z,100688.63
2024-04-18T10:19:32.555Z,100689.25
2024-04-18T10:22:11.973Z,100685.06
2024-04-18T10:24:50.609Z,100696.63
2024-04-18T10:27:20.206Z,100693.59
2024-04-18T10:30:00.318Z,100690.59
2024-04-18T10:32:32.991Z,100688.56
2024-04-18T10:35:00.468Z,100698.25
2024-04-18T10:37:27.092Z,100695.78
2024-04-18T10:39:54.141Z,100686.53
2024-04-18T10:42:21.742Z,100694.31
2024-04-18T10:44:49.394Z,100689.00
2024-04-18T10:47:20.320Z,100690.25
2024-04-18T10:49:46.957Z,100694.78
2024-04-18T10:52:17.741Z,100694.28
2024-04-18T10:54:45.221Z,100698.75
2024-04-18T10:57:11.924Z,100687.16
2024-04-18T10:59:44.744Z,100697.31
2024-04-18T11:02:11.935Z,100691.34
2024-04-18T11:04:38.562Z,100692.13
2024-04-18T11:07:05.337Z,100681.25
2024-04-18T11:09:34.981Z,100695.19
2024-04-18T11:12:03.197Z,100695.56
2024-04-18T11:14:29.962Z,100696.31
2024-04-18T11:17:01.723Z,100696.50
2024-04-18T11:19:30.251Z,100687.81
2024-04-18T11:22:00.919Z,100690.09
2024-04-18T11:24:28.741Z,100685.31
2024-04-18T11:26:55.338Z,100683.50
2024-04-18T11:29:29.076Z,100680.41
2024-04-18T11:32:09.891Z,100697.41
2024-04-18T11:34:39.047Z,100691.72
2024-04-18T11:37:08.783Z,100681.56
2024-04-18T11:39:35.350Z,100677.09
2024-04-18T11:42:02.080Z,100676.28
2024-04-18T11:44:30.367Z,100688.22
2024-04-18T11:46:57.090Z,100692.47
2024-04-18T11:49:23.618Z,100691.28
2024-04-18T11:51:50.140Z,100692.03
2024-04-18T11:54:16.713Z,100686.94
2024-04-18T11:56:43.245Z,100693.56
2024-04-18T11:59:09.752Z,100698.34
2024-04-18T12:01:36.396Z,100696.31
2024-04-18T12:04:03.117Z,100700.19
2024-04-18T12:06:30.152Z,100687.66
2024-04-18T12:08:57.087Z,100699.00
2024-04-18T12:11:23.713Z,100708.72
2024-04-18T12:13:51.414Z,100704.31
2024-04-18T12:16:18.451Z,100702.13
2024-04-18T12:18:44.993Z,100708.75
2024-04-18T12:21:11.532Z,100711.53
2024-04-18T12:23:43.949Z,100706.78
2024-04-18T12:26:11.512Z,100710.69
2024-04-18T12:28:37.973Z,100706.44
2024-04-18T12:31:04.518Z,100703.00
2024-04-18T12:33:31.157Z,100706.59
2024-04-18T12:35:58.184Z,100714.41
2024-04-18T12:38:24.690Z,100709.53
2024-04-18T12:40:51.222Z,100709.69
2024-04-18T12:43:18.495Z,100701.91
2024-04-18T12:45:45.219Z,100714.66
2024-04-18T12:48:12.056Z,100715.31
2024-04-18T12:50:38.734Z,100708.09
2024-04-18T12:53:05.249Z,100719.19
2024-04-18T12:55:31.856Z,100708.72
2024-04-18T12:57:58.379Z,100708.13
2024-04-18T13:00:26.049Z,100707.16
2024-04-18T13:02:52.710Z,100701.84
2024-04-18T13:05:19.280Z,100695.59
2024-04-18T13:07:45.820Z,100693.25
2024-04-18T13:10:12.353Z,100696.88
2024-04-18T13:12:38.965Z,100699.75
2024-04-18T13:15:06.120Z,100682.81
2024-04-18T13:17:32.703Z,100684.13
2024-04-18T13:20:00.985Z,100693.63
2024-04-18T13:22:27.489Z,100691.25
2024-04-18T13:24:54.093Z,100691.56
2024-04-18T13:27:22.273Z,100688.41
2024-04-18T13:29:48.887Z,100691.28
2024-04-18T13:32:15.434Z,100698.00
2024-04-18T13:34:41.966Z,100697.44
2024-04-18T13:37:08.486Z,100702.75
2024-04-18T13:39:35.064Z,100698.22
2024-04-18T13:42:01.715Z,100694.53
2024-04-18T13:44:28.348Z,100694.41
2024-04-18T13:46:55.073Z,100705.47
2024-04-18T13:49:21.552Z,100697.88
2024-04-18T13:51:48.157Z,100699.59
2024-04-18T13:54:14.733Z,100698.03
2024-04-18T13:56:41.298Z,100701.66
2024-04-18T13:59:07.840Z,100699.97
2024-04-18T14:01:34.426Z,100701.69
2024-04-18T14:04:01.043Z,100693.63
2024-04-18T14:06:27.790Z,100692.66
2024-04-18T14:08:54.318Z,100687.63
2024-04-18T14:11:20.852Z,100690.97
2024-04-18T14:13:47.359Z,100690.69
2024-04-18T14:16:32.502Z,100693.34
2024-04-18T14:19:00.065Z,100687.38
2024-04-18T14:21:26.614Z,100688.16
2024-04-18T14:23:53.136Z,100680.94
2024-04-18T14:26:19.793Z,100684.00
2024-04-18T14:28:46.577Z,100693.66
2024-04-18T14:31:14.886Z,100687.91
2024-04-18T14:33:41.584Z,100683.81
2024-04-18T14:36:08.323Z,100676.00
2024-04-18T14:38:34.821Z,100677.69
2024-04-18T14:41:09.366Z,100685.88
2024-04-18T14:43:38.468Z,100687.47
2024-04-18T14:46:05.277Z,100682.66
2024-04-18T14:48:34.534Z,100688.19
2024-04-18T14:51:01.572Z,100687.19
2024-04-18T14:53:28.070Z,100691.03
2024-04-18T14:55:54.837Z,100695.69
2024-04-18T14:58:21.400Z,100690.59
2024-04-18T15:00:51.663Z,100694.63
2024-04-18T15:03:18.867Z,100692.06
2024-04-18T15:05:56.027Z,100701.38
2024-04-18T15:08:23.055Z,100709.72
2024-04-18T15:10:49.837Z,100709.88
2024-04-18T15:13:16.370Z,100708.28
2024-04-18T15:15:43.042Z,100704.78
2024-04-18T15:18:09.885Z,100698.59
2024-04-18T15:20:36.617Z,100699.66
2024-04-18T15:23:03.169Z,100701.13
2024-04-18T15:25:29.661Z,100707.03
2024-04-18T15:27:56.784Z,100709.69
2024-04-18T15:30:24.110Z,100713.66
2024-04-18T15:32:50.879Z,100711.50
2024-04-18T15:35:17.951Z,100712.81
2024-04-18T15:37:44.468Z,100712.81
2024-04-18T15:40:12.662Z,100721.06
2024-04-18T15:42:40.416Z,100725.75
2024-04-18T15:45:07.656Z,100733.19
2024-04-18T15:47:34.931Z,100727.22
2024-04-18T15:50:01.519Z,100723.03
2024-04-18T15:52:30.051Z,100731.97
2024-04-18T15:55:08.022Z,100732.06
2024-04-18T15:57:39.314Z,100737.09
2024-04-18T16:00:07.261Z,100725.94
2024-04-18T16:02:33.952Z,100730.06
2024-04-18T16:05:00.724Z,100723.19
2024-04-18T16:07:27.320Z,100726.53
2024-04-18T16:09:53.871Z,100720.00
2024-04-18T16:12:20.524Z,100728.22
2024-04-18T16:14:47.025Z,100725.03
2024-04-18T16:17:13.555Z,100729.06
2024-04-18T16:19:40.560Z,100732.56
2024-04-18T16:22:07.128Z,100731.31
2024-04-18T16:24:33.672Z,100739.16
2024-04-18T16:27:00.292Z,100739.59
2024-04-18T16:29:26.827Z,100739.44
2024-04-18T16:31:53.553Z,100736.56
2024-04-18T16:34:20.040Z,100746.22
2024-04-18T16:36:52.783Z,100745.88
2024-04-18T16:39:26.896Z,100751.25
2024-04-18T16:41:53.442Z,100763.03
2024-04-18T16:44:20.241Z,100762.78
2024-04-18T16:46:46.823Z,100762.19
2024-04-18T16:49:13.365Z,100745.34
2024-04-18T16:51:40.017Z,100754.31
2024-04-18T16:54:06.617Z,100753.06
2024-04-18T16:56:33.186Z,100755.00
2024-04-18T16:58:59.712Z,100743.84
2024-04-18T17:01:26.376Z,100751.63
2024-04-18T17:03:52.986Z,100751.91
2024-04-18T17:06:19.752Z,100754.66
2024-04-18T17:08:46.317Z,100742.69
2024-04-18T17:11:12.905Z,100741.75
2024-04-18T17:13:39.561Z,100734.56
2024-04-18T17:16:06.391Z,100740.69
2024-04-18T17:18:35.046Z,100747.56
2024-04-18T17:21:01.930Z,100747.94
2024-04-18T17:23:28.692Z,100756.03
2024-04-18T17:25:55.450Z,100759.72
2024-04-18T17:28:22.423Z,100750.28
2024-04-18T17:30:48.956Z,100759.63
2024-04-18T17:33:15.511Z,100767.72
2024-04-18T17:35:43.364Z,100770.53
2024-04-18T17:38:11.720Z,100768.06
2024-04-18T17:40:38.223Z,100778.38
2024-04-18T17:43:05.681Z,100776.03
2024-04-18T17:45:32.403Z,100770.38
2024-04-18T17:47:58.988Z,100782.88
2024-04-18T17:50:25.578Z,100780.03
2024-04-18T17:52:52.119Z,100789.06
2024-04-18T17:55:18.689Z,100785.97
2024-04-18T17:57:45.305Z,100788.78
2024-04-18T18:00:12.484Z,100791.31
2024-04-18T18:02:39.434Z,100785.63
2024-04-18T18:05:06.161Z,100792.97
2024-04-18T18:07:32.683Z,100784.63
2024-04-18T18:09:59.250Z,100783.72
2024-04-18T18:12:25.831Z,100787.81
2024-04-18T18:14:52.318Z,100783.97
2024-04-18T18:17:19.120Z,100781.22
2024-04-18T18:19:45.820Z,100798.44
2024-04-18T18:22:12.333Z,100799.25
2024-04-18T18:24:40.449Z,100815.31
2024-04-18T18:27:06.987Z,100818.72
2024-04-18T18:29:33.631Z,100822.25
2024-04-18T18:32:00.261Z,100822.72
2024-04-18T18:34:26.905Z,100831.13
2024-04-18T18:36:53.450Z,100831.00
2024-04-18T18:39:20.039Z,100826.69
2024-04-18T18:41:46.656Z,100826.94
2024-04-18T18:44:13.206Z,100832.75
2024-04-18T18:46:39.713Z,100829.34
2024-04-18T18:49:06.444Z,100838.28
2024-04-18T18:51:33.103Z,100830.78
2024-04-18T18:53:59.615Z,100844.91
2024-04-18T18:56:26.120Z,100838.69
2024-04-18T18:58:52.649Z,100844.41
2024-04-18T19:01:19.223Z,100845.69
2024-04-18T19:03:48.509Z,100848.53
2024-04-18T19:06:25.645Z,100847.63
2024-04-18T19:08:52.265Z,100845.22
2024-04-18T19:11:18.843Z,100849.59
2024-04-18T19:13:45.409Z,100859.63
2024-04-18T19:16:12.633Z,100854.97
2024-04-18T19:18:39.179Z,100860.38
2024-04-18T19:21:05.762Z,100855.66
2024-04-18T19:23:36.897Z,100859.53
2024-04-18T19:26:03.603Z,100858.09
2024-04-18T19:28:30.358Z,100856.50
2024-04-18T19:30:58.210Z,100852.34
2024-04-18T19:33:25.255Z,100856.38
2024-04-18T19:35:51.906Z,100861.84
2024-04-18T19:38:18.917Z,100857.00
2024-04-18T19:40:48.535Z,100863.31
2024-04-18T19:43:15.033Z,100851.88
2024-04-18T19:45:42.115Z,100852.34
2024-04-18T19:48:09.097Z,100853.06
2024-04-18T19:50:37.955Z,100857.47
2024-04-18T19:53:04.796Z,100851.88
2024-04-18T19:55:31.293Z,100847.00
2024-04-18T19:57:57.813Z,100850.00
2024-04-18T20:00:24.344Z,100852.81
2024-04-18T20:02:53.870Z,100856.72
2024-04-18T20:05:20.387Z,100844.53
2024-04-18T20:07:48.308Z,100845.16
2024-04-18T20:10:16.090Z,100857.22
2024-04-18T20:12:43.122Z,100850.00
2024-04-18T20:15:09.675Z,100849.50
2024-04-18T20:17:36.654Z,100852.41
2024-04-18T20:20:03.370Z,100851.31
2024-04-18T20:22:30.116Z,100850.59
2024-04-18T20:24:56.634Z,100852.03
2024-04-18T20:27:25.788Z,100852.59
2024-04-18T20:29:52.540Z,100837.25
2024-04-18T20:32:19.411Z,100848.50
2024-04-18T20:34:45.941Z,100833.84
2024-04-18T20:37:12.756Z,100836.53
2024-04-18T20:39:39.418Z,100825.66
2024-04-18T20:42:06.092Z,100837.91
2024-04-18T20:44:32.616Z,100838.59
2024-04-18T20:46:59.080Z,100836.34
2024-04-18T20:49:25.700Z,100840.34
2024-04-18T20:51:52.255Z,100842.97
2024-04-18T20:54:18.870Z,100849.41
2024-04-18T20:56:45.394Z,100846.84
2024-04-18T20:59:12.057Z,100833.22
2024-04-18T21:01:38.693Z,100836.38
2024-04-18T21:04:05.569Z,100848.41
2024-04-18T21:06:32.606Z,100854.59
2024-04-18T21:08:59.168Z,100856.63
2024-04-18T21:11:25.738Z,100850.03
2024-04-18T21:13:52.359Z,100841.16
2024-04-18T21:16:18.914Z,100848.03
2024-04-18T21:18:45.608Z,100841.72
2024-04-18T21:21:12.227Z,100846.72
2024-04-18T21:23:39.615Z,100847.53
2024-04-18T21:26:06.182Z,100837.03
2024-04-18T21:28:32.714Z,100837.81
2024-04-18T21:30:59.213Z,100834.50
2024-04-18T21:33:25.903Z,100843.91
2024-04-18T21:35:52.563Z,100841.66
2024-04-18T21:38:19.226Z,100844.34
2024-04-18T21:40:46.069Z,100846.47
2024-04-18T21:43:12.795Z,100835.41
2024-04-18T21:45:42.162Z,100846.94
2024-04-18T21:48:08.886Z,100838.94
2024-04-18T21:50:38.957Z,100838.75
2024-04-18T21:53:05.612Z,100834.88
2024-04-18T21:55:32.147Z,100831.16
2024-04-18T21:57:58.740Z,100834.06
2024-04-18T22:00:26.489Z,100833.41
2024-04-18T22:02:53.085Z,100831.72
2024-04-18T22:05:19.962Z,100828.13
2024-04-18T22:07:46.545Z,100820.19
2024-04-18T22:10:13.282Z,100822.34
2024-04-18T22:12:39.912Z,100822.97
2024-04-18T22:15:07.171Z,100821.41
2024-04-18T22:17:33.761Z,100821.16
2024-04-18T22:20:00.403Z,100826.69
2024-04-18T22:22:26.964Z,100827.91
2024-04-18T22:24:53.717Z,100833.47
2024-04-18T22:27:20.290Z,100829.84
2024-04-18T22:29:46.905Z,100829.84
2024-04-18T22:32:13.542Z,100821.81
2024-04-18T22:34:40.152Z,100829.63
2024-04-18T22:37:06.790Z,100817.56
2024-04-18T22:39:33.414Z,100815.19
2024-04-18T22:41:59.980Z,100802.94
2024-04-18T22:44:26.533Z,100799.31
2024-04-18T22:46:53.112Z,100809.00
2024-04-18T22:49:19.787Z,100815.88
2024-04-18T22:51:46.395Z,100809.13
2024-04-18T22:54:12.996Z,100817.69
2024-04-18T22:56:39.551Z,100817.88
2024-04-18T22:59:06.394Z,100810.63
2024-04-18T23:01:33.012Z,100808.16
2024-04-18T23:03:59.878Z,100814.28
2024-04-18T23:06:26.595Z,100810.19
2024-04-18T23:08:53.176Z,100813.19
2024-04-18T23:11:22.071Z,100810.47
2024-04-18T23:13:49.599Z,100807.44
2024-04-18T23:16:16.199Z,100801.97
2024-04-18T23:18:44.464Z,100800.59
2024-04-18T23:21:11.288Z,100799.50
2024-04-18T23:23:37.886Z,100787.22
2024-04-18T23:26:04.572Z,100793.41
2024-04-18T23:28:31.225Z,100789.78
2024-04-18T23:30:57.800Z,100790.34
2024-04-18T23:33:24.474Z,100780.44
2024-04-18T23:35:51.119Z,100781.16
2024-04-18T23:38:17.667Z,100777.84
2024-04-18T23:40:44.158Z,100775.41
2024-04-18T23:43:10.739Z,100775.81
2024-04-18T23:45:37.371Z,100776.13
2024-04-18T23:48:04.486Z,100771.09
2024-04-18T23:50:31.508Z,100769.09
2024-04-18T23:52:58.163Z,100768.91
2024-04-18T23:55:24.685Z,100768.13
2024-04-18T23:57:51.294Z,100763.75
